createdAt,value
2023-04-15T00:01:10.155Z,4.24
2023-04-15T00:04:18.661Z,4.24
2023-04-15T00:07:26.630Z,4.22
2023-04-15T00:10:34.869Z,4.26
2023-04-15T00:13:44.624Z,4.30
2023-04-15T00:16:56.739Z,4.30
2023-04-15T00:20:06.404Z,4.32
2023-04-15T00:23:14.777Z,4.38
2023-04-15T00:26:22.514Z,4.40
2023-04-15T00:29:30.841Z,4.40
2023-04-15T00:32:38.650Z,4.40
2023-04-15T00:35:46.964Z,4.40
2023-04-15T00:38:55.427Z,4.40
2023-04-15T00:42:03.746Z,4.40
2023-04-15T00:45:14.058Z,4.42
2023-04-15T00:48:23.149Z,4.50
2023-04-15T00:51:31.188Z,236.40
2023-04-15T00:54:39.016Z,236.40
2023-04-15T00:57:47.771Z,236.40
2023-04-15T01:00:57.671Z,236.40
2023-04-15T01:04:04.716Z,236.40
2023-04-15T01:07:12.917Z,236.40
2023-04-15T01:10:21.460Z,236.40
2023-04-15T01:13:30.057Z,236.40
2023-04-15T01:16:39.866Z,236.40
2023-04-15T01:19:47.936Z,236.40
2023-04-15T01:22:58.177Z,236.40
2023-04-15T01:26:08.123Z,236.40
2023-04-15T01:29:16.561Z,236.40
2023-04-15T01:32:24.678Z,236.40
2023-04-15T01:35:32.971Z,236.40
2023-04-15T01:38:41.394Z,236.40
2023-04-15T01:41:49.284Z,236.40
2023-04-15T01:44:57.726Z,236.40
2023-04-15T01:48:05.670Z,236.40
2023-04-15T01:51:14.115Z,236.40
2023-04-15T01:54:21.915Z,236.40
2023-04-15T01:57:29.919Z,236.40
2023-04-15T02:00:38.366Z,236.40
2023-04-15T02:03:46.812Z,236.40
2023-04-15T02:06:55.378Z,236.40
2023-04-15T02:10:04.158Z,236.40
2023-04-15T02:13:12.102Z,236.40
2023-04-15T02:16:23.416Z,236.40
2023-04-15T02:19:31.232Z,236.40
2023-04-15T02:22:39.088Z,236.40
2023-04-15T02:25:53.389Z,236.40
2023-04-15T02:29:02.887Z,236.40
2023-04-15T02:32:11.821Z,236.40
2023-04-15T02:35:20.396Z,236.40
2023-04-15T02:38:28.480Z,236.40
2023-04-15T02:41:36.734Z,236.40
2023-04-15T02:44:44.507Z,236.40
2023-04-15T02:47:53.184Z,236.40
2023-04-15T02:51:16.840Z,236.40
2023-04-15T02:54:25.877Z,236.40
2023-04-15T02:57:35.141Z,236.40
2023-04-15T03:00:42.895Z,236.40
2023-04-15T03:03:51.064Z,236.40
2023-04-15T03:06:59.222Z,236.40
2023-04-15T03:10:07.931Z,236.40
2023-04-15T03:13:15.950Z,236.40
2023-04-15T03:16:23.553Z,236.40
2023-04-15T03:19:31.926Z,236.40
2023-04-15T03:22:39.669Z,236.40
2023-04-15T03:25:47.632Z,236.40
2023-04-15T03:28:56.211Z,236.40
2023-04-15T03:32:04.412Z,236.40
2023-04-15T03:35:13.143Z,236.40
2023-04-15T03:38:21.504Z,236.40
2023-04-15T03:41:29.810Z,236.40
2023-04-15T03:44:37.855Z,236.40
2023-04-15T03:47:45.624Z,236.40
2023-04-15T03:50:53.798Z,236.40
2023-04-15T03:54:02.167Z,236.40
2023-04-15T03:57:10.167Z,236.40
2023-04-15T04:00:18.755Z,236.40
2023-04-15T04:03:27.617Z,236.40
2023-04-15T04:06:35.643Z,236.40
2023-04-15T04:09:45.184Z,236.40
2023-04-15T04:12:54.899Z,236.40
2023-04-15T04:16:03.053Z,236.40
2023-04-15T04:19:10.997Z,236.40
2023-04-15T04:22:18.845Z,236.40
2023-04-15T04:25:27.426Z,236.40
2023-04-15T04:28:36.642Z,236.40
2023-04-15T04:31:44.625Z,236.40
2023-04-15T04:34:52.505Z,236.40
2023-04-15T04:38:00.639Z,236.40
2023-04-15T04:41:08.626Z,236.40
2023-04-15T04:44:16.438Z,236.40
2023-04-15T04:47:24.824Z,236.40
2023-04-15T04:50:33.421Z,236.40
2023-04-15T04:53:41.614Z,236.40
2023-04-15T04:56:49.349Z,236.40
2023-04-15T04:59:57.771Z,236.40
2023-04-15T05:03:05.822Z,236.40
2023-04-15T05:06:13.885Z,236.40
2023-04-15T05:09:21.943Z,236.40
2023-04-15T05:12:30.165Z,236.40
2023-04-15T05:15:39.913Z,236.40
2023-04-15T05:18:47.874Z,236.40
2023-04-15T05:21:56.062Z,236.40
2023-04-15T05:25:03.954Z,236.40
2023-04-15T05:28:12.528Z,236.40
2023-04-15T05:31:21.171Z,236.40
2023-04-15T05:34:29.142Z,236.40
2023-04-15T05:37:37.472Z,236.40
2023-04-15T05:40:45.539Z,236.40
2023-04-15T05:43:53.507Z,236.40
2023-04-15T05:47:01.463Z,236.40
2023-04-15T06:01:22.354Z,236.40
2023-04-15T06:04:30.708Z,236.40
2023-04-15T06:07:39.765Z,236.40
2023-04-15T06:10:47.964Z,236.40
2023-04-15T06:13:56.734Z,236.40
2023-04-15T06:17:05.786Z,236.40
2023-04-15T06:20:16.717Z,236.40
2023-04-15T06:23:26.339Z,236.40
2023-04-15T06:26:35.070Z,236.40
2023-04-15T06:29:43.143Z,236.40
2023-04-15T06:32:51.157Z,236.40
2023-04-15T06:35:59.053Z,236.40
2023-04-15T06:39:07.213Z,236.40
2023-04-15T06:42:15.610Z,236.40
2023-04-15T06:45:23.698Z,236.40
2023-04-15T06:48:31.856Z,236.40
2023-04-15T06:51:41.045Z,236.40
2023-04-15T06:54:48.995Z,236.40
2023-04-15T06:57:57.106Z,236.40
2023-04-15T07:01:05.423Z,236.40
2023-04-15T07:04:13.726Z,236.40
2023-04-15T07:07:21.711Z,236.40
2023-04-15T07:10:30.220Z,236.40
2023-04-15T07:13:38.368Z,236.40
2023-04-15T07:16:46.767Z,236.40
2023-04-15T07:19:55.155Z,236.40
2023-04-15T07:23:03.858Z,236.40
2023-04-15T07:26:12.330Z,236.40
2023-04-15T07:29:21.041Z,236.40
2023-04-15T07:32:28.895Z,236.40
2023-04-15T07:35:37.073Z,236.40
2023-04-15T07:38:45.508Z,236.40
2023-04-15T07:41:53.638Z,236.40
2023-04-15T07:45:01.729Z,236.40
2023-04-15T07:48:11.090Z,236.40
2023-04-15T07:51:19.372Z,236.40
2023-04-15T07:54:27.972Z,236.40
2023-04-15T07:57:36.325Z,236.40
2023-04-15T08:00:45.613Z,236.40
2023-04-15T08:03:54.002Z,236.40
2023-04-15T08:07:02.459Z,236.40
2023-04-15T08:10:14.705Z,236.40
2023-04-15T08:13:23.430Z,236.40
2023-04-15T08:16:31.402Z,236.40
2023-04-15T08:19:40.529Z,236.40
2023-04-15T08:22:52.135Z,236.40
2023-04-15T08:26:00.441Z,236.40
